Time;durP1;ratioP1;P1;durP2;ratioP2;P2;SDS_P1;SDS_P2;PMS_P1;PMS_P2;Temp;Humidity;BMP_temperature;BMP_pressure;BME280_temperature;BME280_humidity;BME280_pressure;Samples;Min_cycle;Max_cycle;Signal;HPM_P1;HPM_P2
2021/04/17 00:02:05;;;;;;;34.70;21.10;;;6.60;99.90;;;;;;4306661;33;20189;-84
2021/04/17 00:04:33;;;;;;;33.70;20.67;;;6.50;99.90;;;;;;4306618;33;20185;-84
2021/04/17 00:07:00;;;;;;;34.53;22.00;;;6.50;99.90;;;;;;4305112;33;20176;-85
2021/04/17 00:09:28;;;;;;;35.10;21.40;;;6.50;99.90;;;;;;4305274;33;20196;-84
2021/04/17 00:11:57;;;;;;;32.47;20.70;;;6.40;99.90;;;;;;4305506;33;20459;-84
2021/04/17 00:14:27;;;;;;;33.43;20.83;;;6.40;99.90;;;;;;4308410;33;20166;-83
2021/04/17 00:17:10;;;;;;;34.83;21.63;;;6.40;99.90;;;;;;4308863;33;20164;-84
2021/04/17 00:19:37;;;;;;;36.43;22.57;;;6.30;99.90;;;;;;4306221;33;20487;-83
2021/04/17 00:22:04;;;;;;;35.63;21.97;;;6.30;99.90;;;;;;4308078;33;20161;-84
2021/04/17 00:24:31;;;;;;;38.30;23.47;;;6.40;99.90;;;;;;4308253;33;20153;-84
2021/04/17 00:26:57;;;;;;;40.67;23.50;;;6.30;99.90;;;;;;4307370;33;20513;-85
2021/04/17 00:29:24;;;;;;;41.27;24.03;;;6.40;99.90;;;;;;4309436;33;20170;-83
2021/04/17 00:31:51;;;;;;;42.57;24.30;;;6.30;99.90;;;;;;4307864;33;20149;-83
2021/04/17 00:34:17;;;;;;;41.43;23.70;;;6.20;99.90;;;;;;4307872;33;20220;-83
2021/04/17 00:36:44;;;;;;;44.63;25.17;;;6.20;99.90;;;;;;4307891;33;20155;-83
2021/04/17 00:39:10;;;;;;;44.10;25.63;;;6.30;99.90;;;;;;4308077;33;20173;-83
2021/04/17 00:41:37;;;;;;;42.30;24.07;;;6.20;99.90;;;;;;4305917;33;20207;-84
2021/04/17 00:44:04;;;;;;;44.43;24.93;;;6.20;99.90;;;;;;4307761;33;20194;-84
2021/04/17 00:46:32;;;;;;;45.90;25.83;;;6.10;99.90;;;;;;4307646;33;20163;-85
2021/04/17 00:49:00;;;;;;;43.50;26.43;;;6.10;99.90;;;;;;4307634;33;20159;-80
2021/04/17 00:51:27;;;;;;;45.13;25.00;;;6.10;99.90;;;;;;4307884;33;20161;-84
2021/04/17 00:53:53;;;;;;;43.87;25.93;;;6.10;99.90;;;;;;4306508;33;20162;-84
2021/04/17 00:56:20;;;;;;;50.33;24.93;;;6.10;99.90;;;;;;4307317;33;20177;-84
2021/04/17 00:58:47;;;;;;;43.87;25.73;;;6.20;99.90;;;;;;4304656;33;20314;-84
2021/04/17 01:01:16;;;;;;;39.03;23.57;;;6.10;99.90;;;;;;4303723;33;20413;-87
2021/04/17 01:03:53;;;;;;;38.67;23.80;;;6.20;99.90;;;;;;4292454;33;20271;-86
2021/04/17 01:06:27;;;;;;;40.30;23.20;;;6.30;99.90;;;;;;4291702;33;20245;-85
2021/04/17 01:09:10;;;;;;;36.63;21.80;;;6.30;99.90;;;;;;4306098;33;20227;-85
2021/04/17 01:11:47;;;;;;;36.47;21.83;;;6.20;99.90;;;;;;4297428;33;20193;-84
2021/04/17 01:14:18;;;;;;;39.33;22.57;;;6.20;99.90;;;;;;4305700;33;20197;-82
2021/04/17 01:16:53;;;;;;;36.33;22.13;;;6.20;99.90;;;;;;4307082;33;20552;-84
2021/04/17 01:19:52;;;;;;;31.70;20.20;;;6.20;99.90;;;;;;4305489;33;20188;-84
2021/04/17 01:22:23;;;;;;;35.30;20.23;;;6.30;99.90;;;;;;4307639;33;20162;-84
2021/04/17 01:25:18;;;;;;;37.43;20.07;;;6.40;99.90;;;;;;4307674;33;20169;-84
2021/04/17 01:27:45;;;;;;;31.13;20.03;;;6.40;99.90;;;;;;4301284;33;20200;-84
2021/04/17 01:30:18;;;;;;;32.80;19.47;;;6.40;99.90;;;;;;4307032;33;20425;-85
2021/04/17 01:32:51;;;;;;;36.33;19.80;;;6.30;99.90;;;;;;4307735;33;20189;-85
2021/04/17 01:35:20;;;;;;;32.13;18.90;;;6.20;99.90;;;;;;4307153;33;20472;-85
2021/04/17 01:37:52;;;;;;;31.90;20.37;;;6.30;99.90;;;;;;4307899;33;20172;-86
2021/04/17 01:40:25;;;;;;;33.43;19.53;;;6.20;99.90;;;;;;4307793;33;20198;-84
2021/04/17 01:42:53;;;;;;;32.43;20.13;;;6.20;99.90;;;;;;4307210;33;20178;-85
2021/04/17 01:45:26;;;;;;;31.43;19.30;;;6.20;99.90;;;;;;4308490;33;20217;-85
2021/04/17 01:47:55;;;;;;;33.10;19.13;;;6.10;99.90;;;;;;4306964;33;20209;-84
2021/04/17 01:50:24;;;;;;;32.77;18.47;;;6.30;99.90;;;;;;4308458;33;20209;-84
2021/04/17 01:52:52;;;;;;;31.40;19.13;;;6.20;99.90;;;;;;4306891;33;20165;-84
2021/04/17 01:55:20;;;;;;;28.40;18.77;;;6.20;99.90;;;;;;4308358;33;20147;-85
2021/04/17 01:57:48;;;;;;;29.97;18.83;;;6.10;99.90;;;;;;4306980;33;20190;-84
2021/04/17 02:00:15;;;;;;;27.87;18.23;;;6.10;99.90;;;;;;4307008;33;20150;-84
2021/04/17 02:02:41;;;;;;;33.57;19.60;;;6.00;99.90;;;;;;4308201;33;20193;-84
2021/04/17 02:05:09;;;;;;;30.33;19.57;;;6.00;99.90;;;;;;4307813;33;20192;-84
2021/04/17 02:07:35;;;;;;;30.10;18.90;;;6.00;99.90;;;;;;4306666;33;20201;-84
2021/04/17 02:10:03;;;;;;;32.63;20.10;;;6.10;99.90;;;;;;4306623;33;20229;-84
2021/04/17 02:12:30;;;;;;;31.87;19.63;;;6.20;99.90;;;;;;4308333;33;20199;-84
2021/04/17 02:14:56;;;;;;;32.10;19.03;;;6.20;99.90;;;;;;4307087;33;20202;-85
2021/04/17 02:17:33;;;;;;;29.83;19.30;;;6.20;99.90;;;;;;4306414;33;20196;-85
2021/04/17 02:20:04;;;;;;;30.10;18.87;;;6.30;99.90;;;;;;4306650;33;20165;-85
2021/04/17 02:22:32;;;;;;;30.40;18.67;;;6.30;99.90;;;;;;4307110;33;20147;-85
2021/04/17 02:25:00;;;;;;;30.67;17.87;;;6.30;99.90;;;;;;4307860;33;20209;-85
2021/04/17 02:27:27;;;;;;;32.23;18.83;;;6.30;99.90;;;;;;4306376;33;20161;-85
2021/04/17 02:29:54;;;;;;;30.40;17.90;;;6.30;99.90;;;;;;4307147;33;20453;-85
2021/04/17 02:32:22;;;;;;;28.50;18.03;;;6.20;99.90;;;;;;4306395;33;20149;-85
2021/04/17 02:34:49;;;;;;;28.43;18.20;;;6.20;99.90;;;;;;4305802;33;20197;-85
2021/04/17 02:37:16;;;;;;;30.20;18.73;;;6.20;99.90;;;;;;4306337;33;20171;-84
2021/04/17 02:39:43;;;;;;;32.10;18.37;;;6.10;99.90;;;;;;4306690;33;20154;-84
2021/04/17 02:42:11;;;;;;;32.37;18.57;;;6.10;99.90;;;;;;4307703;33;20170;-84
2021/04/17 02:44:38;;;;;;;30.10;18.17;;;6.10;99.90;;;;;;4306577;33;20158;-84
2021/04/17 02:47:05;;;;;;;29.97;19.20;;;6.00;99.90;;;;;;4307085;33;20180;-84
2021/04/17 02:49:31;;;;;;;28.67;18.53;;;6.10;99.90;;;;;;4306686;33;20285;-85
2021/04/17 02:51:58;;;;;;;29.67;18.70;;;6.20;99.90;;;;;;4306211;33;20408;-85
2021/04/17 02:54:24;;;;;;;29.50;18.03;;;6.20;99.90;;;;;;4307204;33;20154;-85
2021/04/17 02:56:51;;;;;;;27.80;18.20;;;6.30;99.90;;;;;;4307401;33;20176;-85
2021/04/17 02:59:18;;;;;;;28.07;17.43;;;6.20;99.90;;;;;;4305507;33;20155;-86
2021/04/17 03:01:46;;;;;;;27.70;18.40;;;6.20;99.90;;;;;;4305953;33;20552;-86
2021/04/17 03:04:13;;;;;;;28.33;17.93;;;6.20;99.90;;;;;;4306032;33;20217;-86
2021/04/17 03:06:39;;;;;;;28.70;17.73;;;6.20;99.90;;;;;;4306276;33;20160;-86
2021/04/17 03:09:06;;;;;;;30.90;18.10;;;6.20;99.90;;;;;;4305926;33;20201;-85
2021/04/17 03:11:32;;;;;;;28.17;18.67;;;6.20;99.90;;;;;;4305787;33;20224;-85
2021/04/17 03:13:59;;;;;;;28.77;17.57;;;6.20;99.90;;;;;;4305085;33;20174;-85
2021/04/17 03:16:25;;;;;;;28.73;18.00;;;6.00;99.90;;;;;;4305836;33;20157;-85
2021/04/17 03:18:52;;;;;;;29.03;18.20;;;6.10;99.90;;;;;;4305803;33;20175;-85
2021/04/17 03:21:19;;;;;;;31.60;19.40;;;6.10;99.90;;;;;;4307186;33;20179;-84
2021/04/17 03:23:46;;;;;;;31.70;19.37;;;6.10;99.90;;;;;;4307376;33;20155;-84
2021/04/17 03:26:13;;;;;;;35.00;19.73;;;6.00;99.90;;;;;;4306561;33;20158;-84
2021/04/17 03:28:39;;;;;;;33.43;20.10;;;6.00;99.90;;;;;;4305181;33;20151;-83
2021/04/17 03:31:06;;;;;;;36.53;20.27;;;6.00;99.90;;;;;;4306549;33;20419;-83
2021/04/17 03:33:33;;;;;;;34.90;19.93;;;5.90;99.90;;;;;;4305696;33;20206;-83
2021/04/17 03:35:59;;;;;;;36.27;21.30;;;5.90;99.90;;;;;;4305529;33;20152;-83
2021/04/17 03:38:26;;;;;;;35.13;20.80;;;5.80;99.90;;;;;;4306810;33;20170;-84
2021/04/17 03:40:52;;;;;;;33.57;20.17;;;5.90;99.90;;;;;;4306728;33;20186;-83
2021/04/17 03:43:19;;;;;;;38.53;21.60;;;5.90;99.90;;;;;;4306986;33;20150;-83
2021/04/17 03:45:45;;;;;;;34.40;20.47;;;5.90;99.90;;;;;;4305858;33;20203;-83
2021/04/17 03:48:12;;;;;;;36.70;21.40;;;6.00;99.90;;;;;;4306049;33;20180;-84
2021/04/17 03:50:39;;;;;;;33.73;20.33;;;6.00;99.90;;;;;;4305492;33;20205;-85
2021/04/17 03:53:05;;;;;;;36.50;21.17;;;6.10;99.90;;;;;;4306861;33;20150;-84
2021/04/17 03:55:32;;;;;;;33.80;20.90;;;6.10;99.90;;;;;;4305492;33;20185;-84
2021/04/17 03:57:58;;;;;;;35.57;20.33;;;6.10;99.90;;;;;;4305452;33;20146;-84
2021/04/17 04:00:25;;;;;;;35.97;21.37;;;6.10;99.90;;;;;;4305628;33;20201;-84
2021/04/17 04:02:51;;;;;;;36.77;21.07;;;6.10;99.90;;;;;;4305335;33;20466;-84
2021/04/17 04:05:19;;;;;;;37.50;20.83;;;6.10;99.90;;;;;;4304859;33;20175;-85
2021/04/17 04:07:46;;;;;;;38.23;22.23;;;6.10;99.90;;;;;;4305535;33;20202;-86
2021/04/17 04:10:13;;;;;;;45.17;21.47;;;6.20;99.90;;;;;;4306332;33;20209;-84
2021/04/17 04:12:42;;;;;;;35.60;20.50;;;6.20;99.90;;;;;;4305347;33;20340;-84
2021/04/17 04:15:11;;;;;;;36.67;20.23;;;6.20;99.90;;;;;;4306682;33;20161;-84
2021/04/17 04:17:38;;;;;;;35.30;19.73;;;6.30;99.90;;;;;;4305435;33;20245;-84
2021/04/17 04:20:05;;;;;;;35.40;20.47;;;6.40;99.90;;;;;;4305358;33;20151;-84
2021/04/17 04:22:35;;;;;;;37.03;20.07;;;6.40;99.90;;;;;;4305196;33;20214;-85
2021/04/17 04:25:07;;;;;;;35.30;20.50;;;6.40;99.90;;;;;;4306214;33;20204;-85
2021/04/17 04:27:34;;;;;;;39.30;21.00;;;6.50;99.90;;;;;;4305265;33;20196;-84
2021/04/17 04:30:01;;;;;;;38.97;20.93;;;6.40;99.90;;;;;;4305802;33;20190;-85
2021/04/17 04:32:28;;;;;;;38.27;20.50;;;6.40;99.90;;;;;;4304871;33;20151;-85
2021/04/17 04:34:54;;;;;;;37.83;20.87;;;6.40;99.90;;;;;;4306223;33;20151;-85
2021/04/17 04:37:21;;;;;;;42.00;21.17;;;6.50;99.90;;;;;;4306580;33;20433;-84
2021/04/17 04:39:47;;;;;;;36.30;20.87;;;6.50;99.90;;;;;;4305179;33;20207;-84
2021/04/17 04:42:14;;;;;;;35.87;19.97;;;6.50;99.90;;;;;;4304876;33;20200;-84
2021/04/17 04:44:40;;;;;;;38.07;20.43;;;6.70;99.90;;;;;;4305043;33;20186;-84
2021/04/17 04:47:07;;;;;;;34.57;19.87;;;6.60;99.90;;;;;;4304972;33;20541;-83
2021/04/17 04:49:34;;;;;;;36.80;20.43;;;6.60;99.90;;;;;;4305037;33;20158;-84
2021/04/17 04:52:01;;;;;;;32.50;19.10;;;6.70;99.90;;;;;;4306424;33;20152;-85
2021/04/17 04:54:27;;;;;;;32.57;19.30;;;6.70;99.90;;;;;;4305396;33;20171;-84
2021/04/17 04:56:54;;;;;;;33.87;19.37;;;6.70;99.90;;;;;;4305066;33;20441;-84
2021/04/17 04:59:20;;;;;;;37.93;20.50;;;6.80;99.90;;;;;;4306913;33;20508;-84
2021/04/17 05:01:47;;;;;;;35.90;19.10;;;6.80;99.90;;;;;;4308626;33;20204;-84
2021/04/17 05:04:14;;;;;;;33.27;19.10;;;6.80;99.90;;;;;;4307903;33;20173;-84
2021/04/17 05:06:40;;;;;;;33.77;18.97;;;6.90;99.90;;;;;;4307663;33;20249;-84
2021/04/17 05:09:07;;;;;;;34.93;18.43;;;6.90;99.90;;;;;;4308049;33;20160;-84
2021/04/17 05:11:34;;;;;;;32.53;18.77;;;7.00;99.90;;;;;;4307461;33;20173;-83
2021/04/17 05:14:00;;;;;;;35.97;18.80;;;7.00;99.90;;;;;;4308929;33;20149;-83
2021/04/17 05:16:28;;;;;;;33.50;18.43;;;7.00;99.90;;;;;;4308865;33;20181;-82
2021/04/17 05:18:54;;;;;;;32.60;18.87;;;7.00;99.90;;;;;;4306914;33;20146;-82
2021/04/17 05:21:21;;;;;;;35.30;18.77;;;7.10;99.90;;;;;;4307332;33;20152;-83
2021/04/17 05:23:58;;;;;;;33.13;18.60;;;7.20;99.90;;;;;;4307310;33;20188;-82
2021/04/17 05:26:25;;;;;;;30.90;18.03;;;7.10;99.90;;;;;;4307403;33;20282;-81
2021/04/17 05:28:51;;;;;;;31.83;18.13;;;7.10;99.90;;;;;;4306633;33;20173;-82
2021/04/17 05:31:18;;;;;;;37.07;19.23;;;7.20;99.90;;;;;;4307493;33;20175;-81
2021/04/17 05:33:45;;;;;;;35.07;18.40;;;7.30;99.90;;;;;;4307727;33;20142;-81
2021/04/17 05:36:11;;;;;;;36.73;18.80;;;7.30;99.90;;;;;;4306988;33;20441;-80
2021/04/17 05:38:38;;;;;;;34.47;19.77;;;7.30;99.90;;;;;;4307183;33;20149;-80
2021/04/17 05:41:04;;;;;;;38.20;20.27;;;7.50;99.90;;;;;;4308073;33;20146;-80
2021/04/17 05:43:30;;;;;;;37.43;19.73;;;7.50;99.90;;;;;;4306860;33;20176;-81
2021/04/17 05:45:57;;;;;;;34.63;19.57;;;7.50;99.90;;;;;;4314804;33;20529;-81
2021/04/17 05:48:23;;;;;;;34.13;18.73;;;7.50;99.90;;;;;;4308007;33;20171;-80
2021/04/17 05:50:50;;;;;;;34.80;19.53;;;7.60;99.90;;;;;;4306854;33;20179;-80
2021/04/17 05:53:17;;;;;;;35.50;20.20;;;7.50;99.90;;;;;;4306972;33;20428;-80
2021/04/17 05:55:43;;;;;;;35.30;18.50;;;7.60;99.90;;;;;;4307309;33;20152;-81
2021/04/17 05:58:10;;;;;;;37.77;19.27;;;7.60;99.90;;;;;;4306765;33;20202;-79
2021/04/17 06:00:36;;;;;;;36.33;18.87;;;7.60;99.90;;;;;;4307402;33;20181;-79
2021/04/17 06:03:05;;;;;;;34.50;19.33;;;7.70;99.90;;;;;;4306714;33;20150;-79
2021/04/17 06:05:31;;;;;;;40.27;18.07;;;7.70;99.90;;;;;;4304778;33;20190;-80
2021/04/17 06:08:02;;;;;;;37.03;18.50;;;7.60;99.90;;;;;;4307544;33;20232;-80
2021/04/17 06:10:28;;;;;;;32.83;17.73;;;7.70;99.90;;;;;;4305433;33;20171;-79
2021/04/17 06:12:55;;;;;;;33.20;17.87;;;7.70;99.90;;;;;;4304086;33;20171;-79
2021/04/17 06:15:22;;;;;;;34.03;18.63;;;7.70;99.90;;;;;;4306339;33;20167;-79
2021/04/17 06:17:48;;;;;;;32.47;18.80;;;7.70;99.90;;;;;;4304652;33;20184;-79
2021/04/17 06:20:15;;;;;;;32.00;18.87;;;7.60;99.90;;;;;;4306073;33;20167;-79
2021/04/17 06:22:42;;;;;;;36.73;18.97;;;7.60;99.90;;;;;;4306829;33;20600;-79
2021/04/17 06:25:10;;;;;;;39.30;19.87;;;7.70;99.90;;;;;;4306923;33;20205;-79
2021/04/17 06:27:37;;;;;;;38.53;19.40;;;7.80;99.90;;;;;;4306044;33;20199;-79
2021/04/17 06:30:05;;;;;;;39.43;19.57;;;7.90;99.90;;;;;;4306343;33;20159;-79
2021/04/17 06:32:31;;;;;;;39.50;19.27;;;8.00;99.90;;;;;;4306088;33;20153;-79
2021/04/17 06:34:58;;;;;;;40.87;19.73;;;8.10;99.90;;;;;;4305695;33;20165;-79
2021/04/17 06:37:25;;;;;;;37.70;18.90;;;8.20;99.90;;;;;;4306593;33;20160;-81
2021/04/17 06:39:51;;;;;;;41.33;19.17;;;8.20;99.90;;;;;;4305323;33;20538;-79
2021/04/17 06:42:20;;;;;;;40.33;18.47;;;8.30;99.90;;;;;;4305814;33;20199;-78
2021/04/17 06:44:47;;;;;;;41.13;19.13;;;8.30;99.90;;;;;;4303812;33;20958;-79
2021/04/17 06:47:16;;;;;;;40.47;19.10;;;8.40;99.90;;;;;;4304825;33;20255;-78
2021/04/17 06:49:43;;;;;;;39.50;18.27;;;8.20;99.90;;;;;;4304539;33;20449;-78
2021/04/17 06:52:11;;;;;;;37.40;19.53;;;8.30;99.90;;;;;;4305136;33;20167;-78
2021/04/17 06:54:38;;;;;;;39.50;17.83;;;8.40;99.90;;;;;;4306665;33;20172;-78
2021/04/17 06:57:06;;;;;;;39.97;19.53;;;8.50;99.90;;;;;;4305275;33;20466;-78
2021/04/17 06:59:33;;;;;;;38.27;18.97;;;8.60;99.90;;;;;;4304964;33;20219;-78
2021/04/17 07:02:00;;;;;;;40.20;18.37;;;8.60;99.90;;;;;;4307156;33;20432;-78
2021/04/17 07:04:27;;;;;;;39.60;18.70;;;8.60;99.90;;;;;;4306884;33;20212;-78
2021/04/17 07:06:54;;;;;;;37.77;18.17;;;8.60;99.90;;;;;;4305401;33;20172;-78
2021/04/17 07:09:22;;;;;;;37.23;17.60;;;8.70;99.90;;;;;;4304983;33;20184;-78
2021/04/17 07:11:49;;;;;;;39.00;18.40;;;8.70;99.90;;;;;;4305584;33;20188;-78
2021/04/17 07:14:17;;;;;;;34.20;18.20;;;8.70;99.90;;;;;;4304656;33;20181;-78
2021/04/17 07:16:58;;;;;;;37.40;18.27;;;8.80;99.90;;;;;;4305556;33;20193;-78
2021/04/17 07:19:59;;;;;;;37.97;17.93;;;8.80;99.90;;;;;;4307112;33;20149;-79
2021/04/17 07:22:31;;;;;;;37.47;18.27;;;8.90;99.90;;;;;;4305842;33;20202;-78
2021/04/17 07:25:06;;;;;;;32.27;17.40;;;8.90;99.90;;;;;;4305568;33;20210;-78
2021/04/17 07:27:49;;;;;;;36.70;17.97;;;8.90;99.90;;;;;;4306944;33;20197;-77
2021/04/17 07:30:16;;;;;;;31.03;17.40;;;9.00;99.90;;;;;;4305603;33;20355;-76
2021/04/17 07:32:42;;;;;;;37.63;17.70;;;9.00;99.90;;;;;;4306999;33;20259;-78
2021/04/17 07:35:15;;;;;;;35.27;18.83;;;9.00;99.90;;;;;;4305341;33;20152;-77
2021/04/17 07:37:44;;;;;;;37.67;17.97;;;9.00;99.90;;;;;;4307086;33;20456;-78
2021/04/17 07:40:18;;;;;;;39.57;18.47;;;9.00;99.90;;;;;;4305651;33;20550;-77
2021/04/17 07:42:47;;;;;;;36.70;19.33;;;9.10;99.90;;;;;;4306742;33;20381;-78
2021/04/17 07:45:45;;;;;;;37.63;19.00;;;9.00;99.90;;;;;;4304757;33;20200;-79
2021/04/17 07:48:19;;;;;;;39.07;18.87;;;9.00;99.90;;;;;;4306660;33;20244;-76
2021/04/17 07:50:46;;;;;;;36.43;18.93;;;8.90;99.90;;;;;;4305238;33;20154;-77
2021/04/17 07:53:28;;;;;;;32.90;18.20;;;8.90;99.90;;;;;;4306697;33;20183;-78
2021/04/17 07:55:55;;;;;;;38.80;18.27;;;9.00;99.90;;;;;;4306418;33;20180;-77
2021/04/17 07:58:22;;;;;;;36.53;19.33;;;9.00;99.90;;;;;;4305139;33;20534;-77
2021/04/17 08:00:49;;;;;;;34.90;18.00;;;9.10;99.90;;;;;;4305563;33;20216;-78
2021/04/17 08:03:18;;;;;;;38.33;19.07;;;9.10;99.90;;;;;;4305102;33;20145;-77
2021/04/17 08:05:45;;;;;;;38.43;18.87;;;9.10;99.90;;;;;;4305154;33;20204;-77
2021/04/17 08:08:14;;;;;;;35.97;18.90;;;9.10;99.90;;;;;;4305059;33;20220;-77
2021/04/17 08:10:41;;;;;;;37.27;18.03;;;9.10;99.90;;;;;;4305048;33;20507;-77
2021/04/17 08:13:08;;;;;;;39.00;18.97;;;9.20;99.90;;;;;;4306466;33;20197;-76
2021/04/17 08:15:36;;;;;;;33.23;18.53;;;9.20;99.90;;;;;;4305388;33;20149;-77
2021/04/17 08:18:04;;;;;;;35.63;18.17;;;9.20;99.90;;;;;;4304683;33;20241;-77
2021/04/17 08:20:31;;;;;;;36.20;19.20;;;9.20;99.90;;;;;;4305067;33;20189;-77
2021/04/17 08:22:58;;;;;;;40.13;20.10;;;9.20;99.90;;;;;;4306436;33;20182;-78
2021/04/17 08:25:25;;;;;;;39.87;20.83;;;9.20;99.90;;;;;;4304947;33;20542;-78
2021/04/17 08:27:53;;;;;;;37.90;19.73;;;9.20;99.90;;;;;;4306336;33;20356;-78
2021/04/17 08:30:27;;;;;;;37.13;19.63;;;9.20;99.90;;;;;;4304893;33;20189;-77
2021/04/17 08:33:10;;;;;;;35.77;19.10;;;9.20;99.90;;;;;;4307125;33;20148;-77
2021/04/17 08:35:38;;;;;;;34.40;18.90;;;9.20;99.90;;;;;;4309219;33;20200;-78
2021/04/17 08:38:10;;;;;;;53.00;26.37;;;9.20;99.90;;;;;;4307618;33;20157;-79
2021/04/17 08:40:39;;;;;;;40.33;20.47;;;9.20;99.90;;;;;;4309053;33;20176;-79
2021/04/17 08:43:15;;;;;;;36.43;19.77;;;9.30;99.90;;;;;;4308940;33;20467;-78
2021/04/17 08:46:02;;;;;;;41.27;20.53;;;9.40;99.90;;;;;;4307503;33;20183;-79
2021/04/17 08:48:49;;;;;;;36.20;19.37;;;9.30;99.90;;;;;;4307255;33;20165;-78
2021/04/17 08:51:27;;;;;;;34.90;18.93;;;9.40;99.90;;;;;;4307514;33;20190;-78
2021/04/17 08:53:59;;;;;;;40.53;20.33;;;9.40;99.90;;;;;;4308539;33;20488;-78
2021/04/17 08:56:47;;;;;;;41.93;20.80;;;9.50;99.90;;;;;;4307213;33;20149;-78
2021/04/17 08:59:19;;;;;;;38.10;20.17;;;9.50;99.90;;;;;;4308432;33;20161;-79
2021/04/17 09:01:46;;;;;;;36.80;19.50;;;9.60;99.90;;;;;;4307356;33;20171;-78
2021/04/17 09:04:13;;;;;;;35.47;19.23;;;9.70;99.90;;;;;;4307445;33;20157;-78
2021/04/17 09:06:46;;;;;;;37.30;18.63;;;9.80;99.90;;;;;;4307613;33;20160;-79
2021/04/17 09:09:15;;;;;;;39.57;19.87;;;9.80;99.90;;;;;;4308848;33;20177;-79
2021/04/17 09:11:53;;;;;;;40.10;20.73;;;9.80;99.90;;;;;;4307136;33;20176;-79
2021/04/17 09:14:26;;;;;;;42.57;22.73;;;9.90;99.90;;;;;;4308025;33;20145;-79
2021/04/17 09:17:28;;;;;;;35.23;18.83;;;9.90;99.90;;;;;;4306743;33;20215;-79
2021/04/17 09:19:55;;;;;;;33.83;18.93;;;9.90;99.90;;;;;;4308731;33;20446;-78
2021/04/17 09:22:25;;;;;;;32.47;18.00;;;9.90;99.90;;;;;;4307142;33;20185;-78
2021/04/17 09:25:02;;;;;;;33.83;18.07;;;9.90;99.90;;;;;;4307720;33;20464;-78
2021/04/17 09:27:39;;;;;;;34.13;18.70;;;10.00;99.90;;;;;;4307085;33;20149;-78
2021/04/17 09:30:08;;;;;;;30.57;17.00;;;10.10;99.90;;;;;;4308721;33;20453;-78
2021/04/17 09:32:40;;;;;;;29.33;17.07;;;10.20;99.90;;;;;;4306993;33;20205;-77
2021/04/17 09:35:32;;;;;;;29.23;17.03;;;10.30;99.90;;;;;;4306915;33;20416;-78
2021/04/17 09:38:11;;;;;;;27.43;15.50;;;10.40;99.90;;;;;;4306884;33;20153;-78
2021/04/17 09:40:40;;;;;;;27.07;15.63;;;10.50;99.90;;;;;;4308463;33;20146;-78
2021/04/17 09:43:19;;;;;;;30.53;16.47;;;10.60;99.90;;;;;;4308426;33;20157;-79
2021/04/17 09:45:46;;;;;;;29.93;16.53;;;10.60;99.90;;;;;;4307128;33;20179;-79
2021/04/17 09:48:14;;;;;;;28.90;16.50;;;10.60;99.90;;;;;;4307113;33;20215;-78
2021/04/17 09:50:41;;;;;;;33.17;17.27;;;10.50;99.90;;;;;;4306225;33;20142;-79
2021/04/17 09:53:24;;;;;;;30.53;16.33;;;10.50;99.90;;;;;;4306825;33;20181;-79
2021/04/17 09:55:54;;;;;;;30.33;16.70;;;10.50;99.90;;;;;;4308290;33;20208;-79
2021/04/17 09:58:28;;;;;;;31.70;17.50;;;10.50;99.90;;;;;;4306852;33;20173;-78
2021/04/17 10:00:56;;;;;;;28.93;16.93;;;10.50;99.90;;;;;;4309873;33;20237;-78
2021/04/17 10:03:27;;;;;;;32.47;17.37;;;10.40;99.90;;;;;;4315050;33;20439;-79
2021/04/17 10:05:54;;;;;;;33.80;18.43;;;10.50;99.90;;;;;;4306669;33;20200;-79
2021/04/17 10:08:28;;;;;;;35.60;18.07;;;10.50;99.90;;;;;;4306526;33;20184;-80
2021/04/17 10:10:56;;;;;;;32.30;17.80;;;10.60;99.90;;;;;;4306545;33;20173;-80
2021/04/17 10:13:59;;;;;;;31.60;17.53;;;10.70;99.90;;;;;;4308026;33;20185;-82
2021/04/17 10:16:39;;;;;;;32.70;17.70;;;10.80;99.90;;;;;;4263217;33;20244;-81
2021/04/17 10:19:15;;;;;;;32.90;18.37;;;10.80;99.90;;;;;;4261592;33;20213;-80
2021/04/17 10:21:45;;;;;;;40.37;23.13;;;10.90;99.90;;;;;;4260922;33;20426;-80
2021/04/17 10:24:33;;;;;;;35.77;18.80;;;11.00;99.90;;;;;;4261501;33;20186;-78
2021/04/17 10:27:12;;;;;;;42.30;22.27;;;11.10;99.90;;;;;;4260421;33;20385;-80
2021/04/17 10:29:46;;;;;;;32.97;18.07;;;11.10;99.90;;;;;;4257092;33;20205;-79
2021/04/17 10:32:24;;;;;;;32.43;17.17;;;11.20;99.90;;;;;;4257753;33;20231;-79
2021/04/17 10:35:03;;;;;;;30.87;16.47;;;11.10;99.90;;;;;;4257687;33;20202;-79
2021/04/17 10:37:50;;;;;;;33.27;17.33;;;11.20;99.90;;;;;;4258037;33;20213;-79
2021/04/17 10:40:18;;;;;;;28.73;16.73;;;11.20;99.90;;;;;;4259247;33;20210;-79
2021/04/17 10:42:50;;;;;;;30.90;16.90;;;11.10;99.90;;;;;;4258511;33;20175;-79
2021/04/17 10:45:21;;;;;;;33.00;16.33;;;11.10;99.90;;;;;;4259722;33;20182;-78
2021/04/17 10:48:17;;;;;;;32.10;17.70;;;11.00;99.90;;;;;;4261321;33;20162;-78
2021/04/17 10:51:03;;;;;;;29.93;16.50;;;11.00;99.90;;;;;;4279722;33;20192;-78
2021/04/17 10:53:42;;;;;;;33.43;17.43;;;11.10;99.90;;;;;;4296455;33;20220;-75
2021/04/17 10:56:21;;;;;;;30.27;17.00;;;11.20;99.90;;;;;;4313820;33;20421;-75
2021/04/17 10:59:03;;;;;;;31.70;16.63;;;11.30;99.90;;;;;;4308023;33;20199;-75
2021/04/17 11:01:37;;;;;;;30.73;16.80;;;11.40;99.90;;;;;;4305470;33;20462;-74
2021/04/17 11:04:05;;;;;;;28.97;16.33;;;11.40;99.90;;;;;;4305733;33;20184;-75
2021/04/17 11:06:36;;;;;;;31.67;16.97;;;11.30;99.90;;;;;;4305748;33;20194;-74
2021/04/17 11:09:11;;;;;;;25.23;15.70;;;11.30;99.90;;;;;;4303492;33;20185;-80
2021/04/17 11:12:00;;;;;;;28.23;15.70;;;11.30;99.90;;;;;;4304917;33;20240;-80
2021/04/17 11:14:28;;;;;;;27.60;16.10;;;11.30;99.90;;;;;;4305093;33;20166;-80
2021/04/17 11:16:56;;;;;;;28.77;16.00;;;11.40;99.90;;;;;;4305932;33;20172;-79
2021/04/17 11:19:31;;;;;;;32.70;18.33;;;11.40;99.90;;;;;;4306757;33;20231;-79
2021/04/17 11:22:29;;;;;;;37.53;21.07;;;11.40;99.90;;;;;;4305531;33;20204;-78
2021/04/17 11:24:56;;;;;;;32.53;18.37;;;11.20;99.90;;;;;;4303458;33;20269;-79
2021/04/17 11:27:26;;;;;;;39.77;21.20;;;11.10;99.90;;;;;;4306685;33;20193;-79
2021/04/17 11:29:53;;;;;;;38.03;19.03;;;11.20;99.90;;;;;;4307032;33;20199;-79
2021/04/17 11:32:20;;;;;;;42.90;25.80;;;11.20;99.90;;;;;;4305248;33;20153;-79
2021/04/17 11:34:48;;;;;;;34.97;20.13;;;11.20;99.90;;;;;;4305194;33;20146;-79
2021/04/17 11:37:15;;;;;;;31.63;18.20;;;11.30;99.90;;;;;;4304621;33;20228;-79
2021/04/17 11:39:42;;;;;;;27.57;16.37;;;11.30;99.90;;;;;;4305385;33;20223;-80
2021/04/17 11:42:16;;;;;;;30.03;17.30;;;11.30;99.90;;;;;;4306495;33;20153;-79
2021/04/17 11:44:44;;;;;;;28.07;16.40;;;11.40;99.90;;;;;;4305497;33;20244;-79
2021/04/17 11:47:11;;;;;;;26.60;14.77;;;11.30;99.90;;;;;;4305193;33;20400;-79
2021/04/17 11:49:37;;;;;;;24.40;15.57;;;11.50;99.90;;;;;;4305141;33;20201;-79
2021/04/17 11:52:04;;;;;;;24.37;14.67;;;11.60;99.90;;;;;;4305273;33;20468;-79
2021/04/17 11:54:31;;;;;;;25.17;15.37;;;11.70;99.90;;;;;;4305933;33;20184;-79
2021/04/17 11:56:58;;;;;;;24.80;15.03;;;11.80;99.90;;;;;;4305300;33;20160;-79
2021/04/17 11:59:24;;;;;;;26.07;15.17;;;11.80;99.90;;;;;;4305104;33;20368;-80
2021/04/17 12:01:51;;;;;;;27.23;15.50;;;11.90;99.90;;;;;;4305561;33;20180;-79
2021/04/17 12:04:18;;;;;;;25.87;14.90;;;11.90;99.90;;;;;;4305080;33;20154;-82
2021/04/17 12:06:49;;;;;;;23.77;14.87;;;12.00;99.90;;;;;;4305252;33;20189;-79
2021/04/17 12:09:17;;;;;;;24.53;14.40;;;12.10;99.90;;;;;;4308470;33;20476;-80
2021/04/17 12:11:43;;;;;;;24.03;14.73;;;12.10;99.90;;;;;;4307593;33;20216;-79
2021/04/17 12:14:10;;;;;;;24.57;14.43;;;12.10;99.90;;;;;;4308194;33;20354;-79
2021/04/17 12:16:36;;;;;;;24.47;14.63;;;12.10;99.90;;;;;;4309575;33;20217;-79
2021/04/17 12:19:03;;;;;;;23.10;14.37;;;12.10;99.90;;;;;;4308409;33;20172;-79
2021/04/17 12:21:30;;;;;;;23.73;14.83;;;12.10;99.90;;;;;;4309090;33;20145;-81
2021/04/17 12:23:56;;;;;;;25.23;15.47;;;12.20;99.90;;;;;;4307346;33;20193;-80
2021/04/17 12:26:22;;;;;;;25.13;15.03;;;12.10;99.90;;;;;;4307853;33;20269;-79
2021/04/17 12:28:49;;;;;;;24.17;14.83;;;12.20;99.90;;;;;;4307855;33;20157;-79
2021/04/17 12:31:19;;;;;;;27.87;15.57;;;12.10;99.90;;;;;;4309111;33;20165;-81
2021/04/17 12:33:45;;;;;;;27.07;14.77;;;12.10;99.90;;;;;;4307740;33;20157;-79
2021/04/17 12:36:12;;;;;;;24.67;15.00;;;12.20;99.90;;;;;;4307675;33;20494;-80
2021/04/17 12:38:38;;;;;;;24.67;14.70;;;12.40;99.90;;;;;;4308497;33;20176;-79
2021/04/17 12:41:05;;;;;;;24.13;15.00;;;12.60;99.90;;;;;;4307467;33;20157;-79
2021/04/17 12:43:32;;;;;;;23.87;14.60;;;12.80;99.90;;;;;;4307009;33;20149;-81
2021/04/17 12:45:59;;;;;;;24.40;15.30;;;13.00;99.90;;;;;;4307464;33;20180;-79
2021/04/17 12:48:25;;;;;;;23.77;14.37;;;13.20;99.90;;;;;;4307423;33;20224;-79